createdAt,value
2019-05-26T00:01:16.566Z,99.90
2019-05-26T00:04:12.890Z,99.90
2019-05-26T00:07:08.650Z,99.90
2019-05-26T00:10:05.789Z,99.90
2019-05-26T00:13:02.667Z,99.90
2019-05-26T00:15:59.528Z,99.90
2019-05-26T00:18:55.608Z,99.90
2019-05-26T00:21:51.767Z,99.90
2019-05-26T00:24:47.431Z,99.90
2019-05-26T00:27:44.254Z,99.90
2019-05-26T00:30:40.901Z,99.90
2019-05-26T00:33:36.882Z,99.90
2019-05-26T00:36:32.984Z,99.90
2019-05-26T00:39:29.332Z,99.90
2019-05-26T00:42:26.281Z,99.90
2019-05-26T00:45:24.812Z,99.90
2019-05-26T00:48:21.516Z,99.90
2019-05-26T00:51:18.061Z,99.90
2019-05-26T00:54:14.233Z,99.90
2019-05-26T00:57:10.869Z,99.90
2019-05-26T01:00:07.007Z,99.90
2019-05-26T01:03:03.531Z,99.90
2019-05-26T01:06:00.788Z,99.90
2019-05-26T01:08:57.617Z,99.90
2019-05-26T01:11:54.270Z,99.90
2019-05-26T01:14:51.296Z,99.90
2019-05-26T01:17:48.070Z,99.90
2019-05-26T01:20:43.961Z,99.90
2019-05-26T01:23:40.168Z,99.90
2019-05-26T01:26:36.943Z,99.90
2019-05-26T01:29:33.695Z,99.90
2019-05-26T01:32:29.529Z,99.90
2019-05-26T01:35:26.565Z,99.90
2019-05-26T01:38:24.717Z,99.90
2019-05-26T01:41:21.217Z,99.90
2019-05-26T01:44:18.056Z,99.90
2019-05-26T01:47:13.917Z,99.90
2019-05-26T01:50:11.145Z,99.90
2019-05-26T01:53:09.429Z,99.90
2019-05-26T01:56:06.093Z,99.90
2019-05-26T01:59:03.032Z,99.90
2019-05-26T02:01:59.967Z,99.90
2019-05-26T02:04:57.144Z,99.90
2019-05-26T02:07:54.243Z,99.90
2019-05-26T02:10:51.180Z,99.90
2019-05-26T02:13:47.735Z,99.90
2019-05-26T02:16:44.722Z,99.90
2019-05-26T02:19:40.868Z,99.90
2019-05-26T02:22:37.858Z,99.90
2019-05-26T02:25:33.844Z,99.90
2019-05-26T02:28:29.554Z,99.90
2019-05-26T02:31:25.546Z,99.90
2019-05-26T02:34:22.091Z,99.90
2019-05-26T02:37:19.630Z,99.90
2019-05-26T02:40:17.841Z,99.90
2019-05-26T02:43:14.944Z,99.90
2019-05-26T02:46:11.175Z,99.90
2019-05-26T02:49:07.957Z,99.90
2019-05-26T02:52:05.650Z,99.90
2019-05-26T02:55:02.530Z,99.90
2019-05-26T02:57:58.238Z,99.90
2019-05-26T03:00:54.857Z,99.90
2019-05-26T03:03:50.786Z,99.90
2019-05-26T03:06:48.614Z,99.90
2019-05-26T03:09:45.390Z,99.90
2019-05-26T03:12:43.955Z,99.90
2019-05-26T03:15:40.100Z,99.90
2019-05-26T03:18:39.813Z,99.90
2019-05-26T03:21:37.048Z,99.90
2019-05-26T03:24:34.377Z,99.90
2019-05-26T03:27:30.291Z,99.90
2019-05-26T03:30:26.933Z,99.90
2019-05-26T03:33:23.944Z,99.90
2019-05-26T03:36:20.009Z,99.90
2019-05-26T03:39:16.114Z,99.90
2019-05-26T03:42:12.291Z,99.90
2019-05-26T03:45:12.180Z,99.90
2019-05-26T03:48:08.446Z,99.90
2019-05-26T03:51:04.719Z,99.90
2019-05-26T03:54:00.415Z,99.90
2019-05-26T03:56:56.875Z,99.90
2019-05-26T03:59:53.069Z,99.90
2019-05-26T04:02:49.282Z,99.90
2019-05-26T04:05:45.871Z,99.90
2019-05-26T04:08:42.672Z,99.90
2019-05-26T04:11:39.443Z,99.90
2019-05-26T04:14:36.265Z,99.90
2019-05-26T04:17:32.792Z,99.90
2019-05-26T04:20:29.641Z,99.90
2019-05-26T04:23:25.728Z,99.90
2019-05-26T04:26:23.203Z,99.90
2019-05-26T04:29:20.871Z,99.90
2019-05-26T04:32:17.134Z,99.90
2019-05-26T04:35:13.841Z,99.90
2019-05-26T04:38:10.333Z,99.90
2019-05-26T04:41:06.167Z,99.90
2019-05-26T04:44:02.813Z,99.90
2019-05-26T04:47:05.305Z,99.90
2019-05-26T04:50:02.493Z,99.90
2019-05-26T04:53:06.112Z,99.90
2019-05-26T04:55:56.828Z,99.90
2019-05-26T04:58:53.181Z,99.90
2019-05-26T05:01:49.323Z,99.90
2019-05-26T05:04:46.271Z,99.90
2019-05-26T05:07:42.233Z,99.90
2019-05-26T05:10:42.200Z,99.90
2019-05-26T05:13:35.830Z,99.90
2019-05-26T05:16:33.083Z,99.90
2019-05-26T05:19:29.413Z,99.90
2019-05-26T05:22:26.783Z,99.90
2019-05-26T05:25:22.159Z,99.90
2019-05-26T05:28:18.686Z,99.90
2019-05-26T05:31:14.214Z,99.90
2019-05-26T05:34:10.719Z,99.90
2019-05-26T05:37:07.478Z,99.90
2019-05-26T05:40:03.385Z,99.90
2019-05-26T05:42:58.639Z,99.90
2019-05-26T05:45:55.072Z,99.90
2019-05-26T05:48:50.682Z,99.90
2019-05-26T05:51:47.045Z,99.90
2019-05-26T05:54:43.436Z,99.90
2019-05-26T05:57:38.760Z,99.90
2019-05-26T06:00:35.087Z,99.90
2019-05-26T06:03:32.383Z,99.90
2019-05-26T06:06:29.014Z,99.90
2019-05-26T06:09:25.353Z,99.90
2019-05-26T06:12:21.529Z,99.90
2019-05-26T06:15:17.776Z,99.90
2019-05-26T06:18:14.785Z,99.90
2019-05-26T06:21:10.912Z,99.90
2019-05-26T06:24:07.474Z,99.90
2019-05-26T06:27:04.767Z,99.90
2019-05-26T06:30:00.305Z,99.90
2019-05-26T06:32:56.688Z,99.90
2019-05-26T06:35:53.452Z,99.90
2019-05-26T06:38:51.676Z,99.90
2019-05-26T06:41:48.180Z,99.90
2019-05-26T06:44:53.330Z,99.90
2019-05-26T06:47:42.160Z,99.90
2019-05-26T06:50:38.695Z,99.90
2019-05-26T06:53:37.238Z,99.90
2019-05-26T06:56:31.434Z,99.90
2019-05-26T06:59:26.791Z,99.90
2019-05-26T07:02:23.540Z,99.90
2019-05-26T07:05:20.303Z,99.90
2019-05-26T07:08:16.825Z,99.90
2019-05-26T07:11:14.366Z,99.90
2019-05-26T07:14:09.957Z,99.90
2019-05-26T07:17:06.673Z,99.90
2019-05-26T07:20:03.311Z,99.90
2019-05-26T07:22:59.461Z,99.90
2019-05-26T07:25:54.830Z,99.90
2019-05-26T07:28:50.206Z,99.90
2019-05-26T07:31:46.713Z,99.90
2019-05-26T07:34:43.305Z,99.90
2019-05-26T07:37:39.671Z,99.90
2019-05-26T07:40:36.282Z,99.90
2019-05-26T07:43:33.669Z,99.90
2019-05-26T07:46:32.646Z,99.90
2019-05-26T07:49:30.006Z,99.90
2019-05-26T07:52:25.935Z,99.90
2019-05-26T07:55:22.096Z,99.90
2019-05-26T07:58:18.456Z,99.90
2019-05-26T08:01:14.604Z,99.90
2019-05-26T08:04:09.959Z,99.90
2019-05-26T08:07:06.396Z,99.90
2019-05-26T08:10:02.331Z,99.90
2019-05-26T08:12:59.122Z,97.60
2019-05-26T08:15:55.206Z,95.00
2019-05-26T08:18:53.748Z,92.20
2019-05-26T08:21:50.025Z,89.80
2019-05-26T08:24:46.917Z,86.00
2019-05-26T08:27:42.539Z,85.40
2019-05-26T08:30:38.694Z,83.50
2019-05-26T08:33:35.459Z,81.80
2019-05-26T08:36:34.791Z,79.60
2019-05-26T08:39:33.616Z,81.80
2019-05-26T08:42:43.751Z,79.20
2019-05-26T08:45:26.868Z,80.10
2019-05-26T08:48:22.553Z,77.20
2019-05-26T08:51:18.996Z,74.70
2019-05-26T08:54:16.800Z,71.60
2019-05-26T08:57:13.235Z,69.80
2019-05-26T09:00:10.384Z,71.60
2019-05-26T09:03:06.213Z,71.50
2019-05-26T09:06:02.898Z,70.50
2019-05-26T09:08:58.618Z,71.60
2019-05-26T09:11:54.889Z,69.00
2019-05-26T09:14:51.746Z,68.90
2019-05-26T09:17:48.023Z,71.60
2019-05-26T09:21:11.325Z,68.10
2019-05-26T09:24:08.074Z,66.10
2019-05-26T09:27:04.494Z,65.50
2019-05-26T09:30:06.149Z,66.20
2019-05-26T09:33:04.606Z,66.30
2019-05-26T09:36:02.393Z,69.50
2019-05-26T09:39:01.499Z,65.30
2019-05-26T09:42:03.543Z,64.40
2019-05-26T09:45:01.005Z,61.20
2019-05-26T09:48:00.407Z,65.40
2019-05-26T09:50:59.676Z,64.30
2019-05-26T09:54:01.646Z,63.40
2019-05-26T09:56:52.342Z,61.90
2019-05-26T09:59:50.442Z,61.00
2019-05-26T10:02:47.279Z,63.70
2019-05-26T10:05:45.237Z,61.60
2019-05-26T10:08:43.112Z,62.00
2019-05-26T10:11:43.749Z,59.60
2019-05-26T10:14:41.477Z,59.80
2019-05-26T10:17:38.897Z,59.30
2019-05-26T10:20:36.224Z,60.20
2019-05-26T10:23:32.976Z,64.00
2019-05-26T10:26:30.689Z,60.20
2019-05-26T10:29:28.593Z,60.90
2019-05-26T10:32:25.352Z,60.00
2019-05-26T10:35:25.740Z,61.00
2019-05-26T10:38:23.067Z,60.00
2019-05-26T10:41:25.375Z,59.00
2019-05-26T10:44:21.544Z,59.20
2019-05-26T10:47:16.814Z,60.30
2019-05-26T10:50:15.403Z,59.50
2019-05-26T10:53:11.540Z,56.90
2019-05-26T10:56:07.612Z,59.10
2019-05-26T10:59:03.333Z,60.00
2019-05-26T11:01:59.738Z,58.20
2019-05-26T11:04:57.528Z,59.10
2019-05-26T11:07:53.106Z,58.20
2019-05-26T11:10:48.879Z,59.00
2019-05-26T11:13:44.552Z,57.20
2019-05-26T11:16:41.094Z,59.30
2019-05-26T11:19:37.199Z,57.00
2019-05-26T11:22:33.488Z,57.90
2019-05-26T11:25:32.132Z,59.50
2019-05-26T11:28:28.393Z,60.40
2019-05-26T11:31:27.096Z,59.10
2019-05-26T11:34:22.448Z,58.50
2019-05-26T11:37:19.027Z,57.60
2019-05-26T11:40:15.579Z,56.60
2019-05-26T11:43:16.658Z,60.30
2019-05-26T11:46:08.794Z,58.60
2019-05-26T11:49:05.735Z,60.00
2019-05-26T11:52:02.098Z,59.50
2019-05-26T11:54:58.687Z,59.30
2019-05-26T11:57:54.126Z,61.80
2019-05-26T12:00:50.686Z,59.60
2019-05-26T12:03:46.321Z,58.60
2019-05-26T12:06:41.986Z,59.20
2019-05-26T12:09:38.437Z,61.50
2019-05-26T12:12:37.490Z,58.20
2019-05-26T12:15:35.614Z,59.40
2019-05-26T12:18:31.741Z,59.40
2019-05-26T12:21:30.526Z,59.80
2019-05-26T12:24:28.573Z,59.20
2019-05-26T12:27:25.021Z,62.20
2019-05-26T12:30:21.448Z,62.50
2019-05-26T12:33:17.570Z,61.60
2019-05-26T12:36:13.932Z,62.90
2019-05-26T12:39:10.775Z,60.30
2019-05-26T12:42:10.673Z,61.00
2019-05-26T12:45:08.878Z,62.30
2019-05-26T12:48:05.768Z,62.80
2019-05-26T12:51:02.077Z,62.30
2019-05-26T12:53:57.394Z,64.10
2019-05-26T12:56:53.467Z,62.90
2019-05-26T13:03:00.855Z,63.90
2019-05-26T13:06:02.821Z,61.60
2019-05-26T13:09:38.567Z,62.70
2019-05-26T13:12:27.689Z,62.70
2019-05-26T13:15:23.458Z,61.00
2019-05-26T13:18:19.690Z,60.40
2019-05-26T13:21:15.125Z,63.50
2019-05-26T13:24:12.255Z,63.10
2019-05-26T13:27:08.250Z,62.20
2019-05-26T13:30:04.542Z,62.40
2019-05-26T13:32:59.949Z,64.20
2019-05-26T13:35:57.441Z,63.40
2019-05-26T13:38:54.179Z,63.50
2019-05-26T13:41:50.338Z,66.00
2019-05-26T13:44:46.342Z,61.50
2019-05-26T13:47:41.828Z,62.90
2019-05-26T13:50:37.960Z,63.20
2019-05-26T13:53:33.468Z,61.40
2019-05-26T13:56:30.233Z,64.20
2019-05-26T13:59:25.575Z,63.10
2019-05-26T14:02:21.254Z,65.50
2019-05-26T14:05:18.451Z,67.10
2019-05-26T14:08:14.966Z,66.30
2019-05-26T14:11:11.719Z,63.40
2019-05-26T14:14:07.272Z,65.20
2019-05-26T14:17:05.119Z,64.00
2019-05-26T14:20:05.662Z,64.30
2019-05-26T14:23:03.328Z,61.30
2019-05-26T14:25:58.786Z,63.60
2019-05-26T14:28:56.915Z,65.50
2019-05-26T14:31:55.882Z,63.60
2019-05-26T14:34:55.227Z,65.20
2019-05-26T14:37:51.968Z,65.30
2019-05-26T14:40:48.185Z,67.10
2019-05-26T14:43:46.417Z,66.30
2019-05-26T14:46:46.640Z,64.90
2019-05-26T14:49:41.556Z,66.40
2019-05-26T14:52:38.012Z,68.60
2019-05-26T14:55:34.444Z,70.50
2019-05-26T14:58:32.255Z,69.80
2019-05-26T15:01:36.452Z,69.40
2019-05-26T15:04:37.539Z,70.90
2019-05-26T15:08:12.681Z,68.80
2019-05-26T15:11:41.519Z,70.40
2019-05-26T15:15:02.087Z,68.90
2019-05-26T15:18:12.310Z,69.60
2019-05-26T15:21:22.964Z,69.60
2019-05-26T15:24:25.045Z,67.60
2019-05-26T15:27:37.563Z,68.80
2019-05-26T15:31:04.115Z,69.60
2019-05-26T15:36:20.557Z,71.30
2019-05-26T15:47:00.757Z,70.70
2019-05-26T15:50:25.183Z,71.90
2019-05-26T15:54:17.405Z,72.60
2019-05-26T15:58:13.113Z,72.50
2019-05-26T16:01:19.375Z,72.20
2019-05-26T16:05:27.610Z,72.60
2019-05-26T16:08:30.176Z,71.90
2019-05-26T16:11:49.921Z,71.90
2019-05-26T16:15:08.874Z,72.40
2019-05-26T16:19:07.606Z,73.40
2019-05-26T16:21:55.335Z,72.00
2019-05-26T16:25:02.203Z,71.50
2019-05-26T16:28:12.091Z,71.50
2019-05-26T16:31:12.322Z,70.10
2019-05-26T16:34:30.612Z,71.70
2019-05-26T16:37:39.772Z,72.70
2019-05-26T16:40:57.362Z,74.20
2019-05-26T16:43:53.980Z,71.20
2019-05-26T16:46:56.418Z,73.10
2019-05-26T16:49:47.179Z,72.30
2019-05-26T16:52:43.651Z,73.40
2019-05-26T16:55:39.763Z,72.90
2019-05-26T16:58:47.840Z,73.30
2019-05-26T17:01:45.728Z,73.70
2019-05-26T17:04:47.596Z,73.30
2019-05-26T17:07:50.308Z,73.90
2019-05-26T17:10:45.478Z,76.20
2019-05-26T17:13:41.476Z,74.00
2019-05-26T17:16:40.267Z,74.60
2019-05-26T17:19:36.947Z,74.30
2019-05-26T17:22:32.475Z,73.00
2019-05-26T17:25:28.175Z,73.90
2019-05-26T17:28:24.212Z,74.90
2019-05-26T17:31:21.809Z,73.60
2019-05-26T17:34:17.982Z,75.70
2019-05-26T17:37:16.385Z,74.70
2019-05-26T17:40:12.349Z,74.30
2019-05-26T17:43:08.841Z,73.80
2019-05-26T17:46:06.264Z,75.60
2019-05-26T17:49:02.943Z,76.60
2019-05-26T17:51:58.517Z,77.30
2019-05-26T17:54:55.468Z,79.80
2019-05-26T17:57:51.127Z,78.70
2019-05-26T18:00:47.461Z,77.40
2019-05-26T18:03:43.640Z,78.80
2019-05-26T18:06:39.705Z,79.30
2019-05-26T18:09:44.029Z,78.10
2019-05-26T18:12:37.636Z,78.00
2019-05-26T18:15:34.339Z,78.90
2019-05-26T18:18:30.920Z,79.40
2019-05-26T18:21:26.511Z,81.00
2019-05-26T18:24:22.063Z,80.00
2019-05-26T18:27:18.940Z,82.60
2019-05-26T18:30:15.179Z,83.00
2019-05-26T18:33:10.668Z,83.80
2019-05-26T18:36:07.132Z,81.70
2019-05-26T18:39:06.049Z,82.70
2019-05-26T18:42:02.497Z,84.30
2019-05-26T18:44:59.117Z,84.00
2019-05-26T18:48:03.119Z,84.80
2019-05-26T18:50:52.587Z,85.90
2019-05-26T18:53:49.361Z,85.20
2019-05-26T18:56:45.330Z,86.00
2019-05-26T18:59:42.071Z,86.30
2019-05-26T19:02:38.856Z,87.90
2019-05-26T19:05:38.371Z,87.70
2019-05-26T19:08:32.806Z,88.30
2019-05-26T19:11:28.116Z,88.70
2019-05-26T19:14:24.363Z,88.40
2019-05-26T19:17:22.432Z,88.20
2019-05-26T19:20:21.724Z,88.50
2019-05-26T19:23:20.242Z,90.30
2019-05-26T19:26:16.898Z,90.00
2019-05-26T19:29:12.555Z,90.30
2019-05-26T19:32:09.070Z,90.50
2019-05-26T19:35:08.514Z,90.50
2019-05-26T19:38:04.893Z,91.00
2019-05-26T19:41:01.346Z,90.80
2019-05-26T19:43:57.681Z,91.20
2019-05-26T19:46:53.951Z,91.80
2019-05-26T19:49:50.306Z,91.90
2019-05-26T19:52:49.592Z,92.40
2019-05-26T19:55:44.495Z,92.90
2019-05-26T19:58:40.209Z,93.10
2019-05-26T20:01:36.034Z,93.50
2019-05-26T20:04:33.780Z,93.80
2019-05-26T20:07:30.402Z,94.60
2019-05-26T20:10:28.515Z,94.50
2019-05-26T20:13:24.010Z,95.60
2019-05-26T20:16:20.365Z,95.90
2019-05-26T20:19:17.917Z,95.70
2019-05-26T20:22:15.124Z,96.20
2019-05-26T20:25:11.171Z,96.80
2019-05-26T20:28:08.257Z,97.10
2019-05-26T20:31:04.104Z,97.50
2019-05-26T20:34:00.649Z,98.10
2019-05-26T20:36:56.801Z,98.50
2019-05-26T20:39:52.788Z,99.10
2019-05-26T20:42:48.980Z,99.80
2019-05-26T20:45:45.422Z,99.90
2019-05-26T20:48:43.270Z,99.90
2019-05-26T20:51:39.194Z,99.90
2019-05-26T20:54:34.781Z,99.90
2019-05-26T20:57:31.445Z,99.90
2019-05-26T21:00:31.222Z,99.90
2019-05-26T21:03:27.005Z,99.90
2019-05-26T21:06:22.736Z,99.90
2019-05-26T21:09:21.024Z,99.90
2019-05-26T21:12:16.987Z,99.90
2019-05-26T21:15:13.764Z,99.90
2019-05-26T21:18:10.436Z,99.90
2019-05-26T21:21:06.074Z,99.90
2019-05-26T21:24:01.949Z,99.90
2019-05-26T21:26:58.181Z,99.90
2019-05-26T21:29:53.522Z,99.90
2019-05-26T21:32:50.112Z,99.90
2019-05-26T21:35:46.700Z,99.90
2019-05-26T21:38:43.898Z,99.90
2019-05-26T21:41:39.306Z,99.90
2019-05-26T21:44:35.596Z,99.90
2019-05-26T21:47:31.173Z,99.90
2019-05-26T21:50:26.782Z,99.90
2019-05-26T21:53:24.368Z,99.90
2019-05-26T21:56:20.374Z,99.90
2019-05-26T21:59:16.864Z,99.90
2019-05-26T22:02:13.484Z,99.90
2019-05-26T22:05:09.374Z,99.90
2019-05-26T22:08:06.028Z,99.90
2019-05-26T22:11:02.672Z,99.90
2019-05-26T22:13:58.801Z,99.90
2019-05-26T22:16:55.800Z,99.90
2019-05-26T22:19:52.203Z,99.90
2019-05-26T22:22:48.804Z,99.90
2019-05-26T22:25:45.335Z,99.90
2019-05-26T22:28:40.993Z,99.90
2019-05-26T22:31:38.333Z,99.90
2019-05-26T22:34:34.724Z,99.90
2019-05-26T22:37:30.391Z,99.90
2019-05-26T22:40:26.412Z,99.90
2019-05-26T22:43:22.902Z,99.90
2019-05-26T22:46:18.450Z,99.90
2019-05-26T22:49:14.233Z,99.90
2019-05-26T22:52:10.010Z,99.90
2019-05-26T22:55:06.520Z,99.90
2019-05-26T22:58:02.970Z,99.90
2019-05-26T23:00:58.293Z,99.90
2019-05-26T23:03:54.731Z,99.90
2019-05-26T23:06:50.401Z,99.90
2019-05-26T23:09:46.987Z,99.90
2019-05-26T23:12:43.770Z,99.90
2019-05-26T23:15:39.957Z,99.90
2019-05-26T23:18:35.386Z,99.90
2019-05-26T23:21:30.930Z,99.90
2019-05-26T23:24:26.615Z,99.90
2019-05-26T23:27:22.286Z,99.90
2019-05-26T23:30:18.238Z,99.90
2019-05-26T23:33:13.757Z,99.90
2019-05-26T23:36:10.493Z,99.90
2019-05-26T23:39:07.718Z,99.90
2019-05-26T23:42:02.983Z,99.90
2019-05-26T23:44:59.099Z,99.90
2019-05-26T23:47:55.348Z,99.90
2019-05-26T23:50:50.539Z,99.90
2019-05-26T23:53:47.068Z,99.90
2019-05-26T23:56:44.001Z,99.90
2019-05-26T23:59:40.100Z,99.90
